createdAt,value
2017-08-08T00:01:07.792Z,101058.27
2017-08-08T00:03:42.372Z,101059.51
2017-08-08T00:06:16.878Z,101067.01
2017-08-08T00:08:54.326Z,101062.18
2017-08-08T00:11:31.904Z,101042.52
2017-08-08T00:14:07.643Z,101043.47
2017-08-08T00:16:42.194Z,101036.39
2017-08-08T00:19:16.880Z,101034.49
2017-08-08T00:21:51.425Z,101023.48
2017-08-08T00:24:26.155Z,101031.94
2017-08-08T00:27:00.679Z,101032.87
2017-08-08T00:29:35.211Z,101037.56
2017-08-08T00:32:10.442Z,101027.67
2017-08-08T00:34:51.202Z,101020.14
2017-08-08T00:37:26.728Z,101010.49
2017-08-08T00:40:01.304Z,101009.62
2017-08-08T00:42:37.449Z,101007.17
2017-08-08T00:45:12.397Z,100998.19
2017-08-08T00:47:46.972Z,100997.67
2017-08-08T00:50:21.626Z,100987.77
2017-08-08T00:52:56.320Z,100983.05
2017-08-08T00:55:31.384Z,100982.41
2017-08-08T00:58:06.590Z,100973.88
2017-08-08T01:00:41.244Z,100966.64
2017-08-08T01:03:15.813Z,100972.14
2017-08-08T01:05:50.409Z,100971.56
2017-08-08T01:08:25.912Z,100975.63
2017-08-08T01:11:01.333Z,100968.13
2017-08-08T01:13:35.895Z,100961.45
2017-08-08T01:16:10.475Z,100960.93
2017-08-08T01:18:48.157Z,100955.81
2017-08-08T01:21:23.625Z,100950.67
2017-08-08T01:23:58.186Z,100953.99
2017-08-08T01:26:32.781Z,100954.31
2017-08-08T01:29:07.279Z,100957.02
2017-08-08T01:31:41.975Z,100950.63
2017-08-08T01:34:17.499Z,100943.20
2017-08-08T01:36:52.518Z,100931.53
2017-08-08T01:39:27.198Z,100925.72
2017-08-08T01:42:01.709Z,100925.83
2017-08-08T01:44:37.070Z,100927.14
2017-08-08T01:47:11.724Z,100925.91
2017-08-08T01:49:45.829Z,100923.36
2017-08-08T01:52:20.303Z,100920.32
2017-08-08T01:54:54.738Z,100918.61
2017-08-08T01:57:29.526Z,100908.80
2017-08-08T02:00:04.044Z,100906.30
2017-08-08T02:02:38.269Z,100899.02
2017-08-08T02:05:12.978Z,100899.77
2017-08-08T02:07:47.542Z,100890.97
2017-08-08T02:10:23.650Z,100893.79
2017-08-08T02:12:58.600Z,100886.19
2017-08-08T02:15:33.857Z,100881.77
2017-08-08T02:18:08.099Z,100882.35
2017-08-08T02:20:42.488Z,100884.23
2017-08-08T02:23:17.196Z,100874.08
2017-08-08T02:25:51.336Z,100875.53
2017-08-08T02:28:26.146Z,100873.03
2017-08-08T02:31:01.491Z,100876.55
2017-08-08T02:33:36.066Z,100877.39
2017-08-08T02:36:10.481Z,100866.22
2017-08-08T02:38:45.256Z,100866.56
2017-08-08T02:41:19.756Z,100873.30
2017-08-08T02:43:54.363Z,100865.20
2017-08-08T02:46:29.493Z,100858.38
2017-08-08T02:49:04.439Z,100849.67
2017-08-08T02:51:40.271Z,100853.33
2017-08-08T02:54:15.322Z,100843.55
2017-08-08T02:56:50.809Z,100836.81
2017-08-08T02:59:26.649Z,100831.53
2017-08-08T03:02:02.195Z,100830.52
2017-08-08T03:04:36.789Z,100828.95
2017-08-08T03:07:12.194Z,100824.76
2017-08-08T03:09:46.909Z,100832.21
2017-08-08T03:12:21.403Z,100830.37
2017-08-08T03:14:56.122Z,100823.87
2017-08-08T03:17:31.437Z,100829.22
2017-08-08T03:20:05.954Z,100829.47
2017-08-08T03:22:40.172Z,100824.69
2017-08-08T03:25:15.994Z,100820.29
2017-08-08T03:27:51.268Z,100811.41
2017-08-08T03:30:27.684Z,100805.14
2017-08-08T03:33:02.164Z,100795.29
2017-08-08T03:35:36.669Z,100795.55
2017-08-08T03:38:12.108Z,100802.45
2017-08-08T03:40:46.869Z,100805.18
2017-08-08T03:43:26.218Z,100799.84
2017-08-08T03:46:01.255Z,100805.08
2017-08-08T03:48:37.299Z,100782.52
2017-08-08T03:51:12.293Z,100790.03
2017-08-08T03:53:47.759Z,100785.02
2017-08-08T03:56:23.230Z,100778.00
2017-08-08T03:58:58.863Z,100774.58
2017-08-08T04:01:34.279Z,100777.02
2017-08-08T04:04:09.679Z,100770.11
2017-08-08T04:06:45.034Z,100763.67
2017-08-08T04:09:20.457Z,100760.74
2017-08-08T04:11:55.841Z,100758.39
2017-08-08T04:14:30.313Z,100754.97
2017-08-08T04:17:05.644Z,100743.26
2017-08-08T04:19:40.099Z,100745.23
2017-08-08T04:22:34.323Z,100752.63
2017-08-08T04:25:08.829Z,100757.27
2017-08-08T04:27:44.118Z,100753.00
2017-08-08T04:30:19.510Z,100751.09
2017-08-08T04:32:54.014Z,100740.36
2017-08-08T04:35:28.470Z,100729.98
2017-08-08T04:38:02.982Z,100721.31
2017-08-08T04:40:37.578Z,100721.24
2017-08-08T04:43:12.130Z,100722.08
2017-08-08T04:45:46.631Z,100722.33
2017-08-08T04:48:21.170Z,100715.50
2017-08-08T04:50:56.536Z,100713.82
2017-08-08T04:53:31.029Z,100721.77
2017-08-08T04:56:06.201Z,100722.30
2017-08-08T04:58:40.813Z,100723.06
2017-08-08T05:01:16.212Z,100730.41
2017-08-08T05:03:50.806Z,100730.34
2017-08-08T05:06:25.385Z,100730.82
2017-08-08T05:08:59.986Z,100737.88
2017-08-08T05:11:35.470Z,100725.31
2017-08-08T05:14:09.968Z,100724.47
2017-08-08T05:16:44.432Z,100724.61
2017-08-08T05:19:19.121Z,100727.42
2017-08-08T05:21:54.519Z,100721.87
2017-08-08T05:24:29.011Z,100718.63
2017-08-08T05:27:03.584Z,100715.96
2017-08-08T05:29:37.475Z,100704.89
2017-08-08T05:32:12.357Z,100697.20
2017-08-08T05:34:47.950Z,100700.50
2017-08-08T05:37:22.634Z,100692.91
2017-08-08T05:39:57.979Z,100674.47
2017-08-08T05:42:33.415Z,100684.79
2017-08-08T05:45:07.896Z,100681.53
2017-08-08T05:47:42.401Z,100672.53
2017-08-08T05:50:17.079Z,100665.73
2017-08-08T05:52:52.596Z,100659.54
2017-08-08T05:55:27.060Z,100672.58
2017-08-08T05:58:01.544Z,100669.69
2017-08-08T06:00:36.580Z,100669.11
2017-08-08T06:03:11.394Z,100667.31
2017-08-08T06:05:45.992Z,100661.47
2017-08-08T06:08:21.175Z,100662.83
2017-08-08T06:10:56.659Z,100659.31
2017-08-08T06:13:32.189Z,100664.67
2017-08-08T06:16:06.681Z,100657.16
2017-08-08T06:18:41.174Z,100651.17
2017-08-08T06:21:15.653Z,100654.02
2017-08-08T06:23:50.116Z,100657.00
2017-08-08T06:26:25.602Z,100649.95
2017-08-08T06:29:00.855Z,100651.31
2017-08-08T06:31:35.390Z,100651.63
2017-08-08T06:34:10.031Z,100645.03
2017-08-08T06:36:44.621Z,100653.00
2017-08-08T06:39:19.229Z,100650.45
2017-08-08T06:41:54.821Z,100648.62
2017-08-08T06:44:30.140Z,100653.60
2017-08-08T06:47:04.746Z,100661.60
2017-08-08T06:49:39.229Z,100655.89
2017-08-08T06:52:13.706Z,100655.50
2017-08-08T06:54:48.257Z,100658.09
2017-08-08T06:57:22.719Z,100657.40
2017-08-08T06:59:58.135Z,100651.69
2017-08-08T07:02:32.680Z,100646.45
2017-08-08T07:05:07.225Z,100642.43
2017-08-08T07:07:42.565Z,100643.11
2017-08-08T07:10:17.066Z,100653.34
2017-08-08T07:12:56.229Z,100657.69
2017-08-08T07:15:31.128Z,100659.75
2017-08-08T07:18:05.913Z,100654.05
2017-08-08T07:20:43.444Z,100650.82
2017-08-08T07:23:18.070Z,100647.13
2017-08-08T07:25:52.713Z,100653.47
2017-08-08T07:28:33.493Z,100647.95
2017-08-08T07:31:21.935Z,100632.12
2017-08-08T07:37:06.987Z,100631.56
2017-08-08T07:39:43.112Z,100632.97
2017-08-08T07:42:18.397Z,100629.05
2017-08-08T07:44:54.517Z,100631.18
2017-08-08T07:47:31.245Z,100630.32
2017-08-08T07:50:05.816Z,100615.59
2017-08-08T07:52:59.327Z,100611.44
2017-08-08T07:55:36.399Z,100605.41
2017-08-08T07:58:23.695Z,100600.41
2017-08-08T08:01:10.530Z,100603.09
2017-08-08T08:06:52.682Z,100614.88
2017-08-08T08:12:51.003Z,100607.99
2017-08-08T08:15:31.895Z,100597.06
2017-08-08T08:21:23.703Z,100588.69
2017-08-08T08:24:05.036Z,100578.08
2017-08-08T08:26:44.019Z,100574.00
2017-08-08T08:32:16.765Z,100575.28
2017-08-08T08:34:51.549Z,100560.14
2017-08-08T08:37:25.945Z,100548.77
2017-08-08T08:40:00.664Z,100542.61
2017-08-08T08:42:35.372Z,100539.83
2017-08-08T08:45:10.005Z,100535.43
2017-08-08T08:47:44.637Z,100543.52
2017-08-08T08:50:20.432Z,100534.39
2017-08-08T08:52:56.068Z,100536.30
2017-08-08T08:55:31.248Z,100531.30
2017-08-08T08:58:06.353Z,100525.27
2017-08-08T09:00:40.949Z,100517.58
2017-08-08T09:03:16.378Z,100517.23
2017-08-08T09:05:51.436Z,100509.45
2017-08-08T09:08:26.165Z,100503.56
2017-08-08T09:11:00.860Z,100496.48
2017-08-08T09:13:36.511Z,100486.91
2017-08-08T09:16:11.265Z,100492.36
2017-08-08T09:18:45.899Z,100486.86
2017-08-08T09:21:20.521Z,100486.15
2017-08-08T09:23:55.214Z,100485.27
2017-08-08T09:26:29.943Z,100482.36
2017-08-08T09:29:04.462Z,100476.53
2017-08-08T09:31:40.061Z,100478.24
2017-08-08T09:34:15.873Z,100473.08
2017-08-08T09:36:50.401Z,100477.17
2017-08-08T09:39:24.932Z,100475.81
2017-08-08T09:41:59.702Z,100471.18
2017-08-08T09:44:35.517Z,100463.45
2017-08-08T09:47:10.079Z,100461.13
2017-08-08T09:49:44.725Z,100466.73
2017-08-08T09:52:19.490Z,100454.63
2017-08-08T09:54:53.996Z,100462.39
2017-08-08T09:57:29.858Z,100457.86
2017-08-08T10:00:05.213Z,100459.64
2017-08-08T10:02:40.900Z,100460.53
2017-08-08T10:05:15.596Z,100453.22
2017-08-08T10:07:50.733Z,100453.02
2017-08-08T10:10:25.768Z,100453.53
2017-08-08T10:13:00.417Z,100466.35
2017-08-08T10:15:35.177Z,100459.77
2017-08-08T10:18:09.675Z,100452.48
2017-08-08T10:20:44.469Z,100457.87
2017-08-08T10:23:19.356Z,100459.40
2017-08-08T10:25:54.149Z,100454.52
2017-08-08T10:28:28.696Z,100450.49
2017-08-08T10:31:03.509Z,100444.98
2017-08-08T10:33:38.437Z,100450.41
2017-08-08T10:36:13.146Z,100446.58
2017-08-08T10:38:47.724Z,100449.98
2017-08-08T10:41:23.240Z,100440.47
2017-08-08T10:43:57.931Z,100443.41
2017-08-08T10:46:32.700Z,100446.70
2017-08-08T10:49:07.456Z,100447.25
2017-08-08T10:51:41.933Z,100446.63
2017-08-08T10:54:16.703Z,100445.05
2017-08-08T10:56:52.289Z,100446.63
2017-08-08T10:59:26.919Z,100453.10
2017-08-08T11:02:01.539Z,100451.81
2017-08-08T11:04:36.209Z,100455.43
2017-08-08T11:07:10.833Z,100458.75
2017-08-08T11:09:45.556Z,100456.44
2017-08-08T11:12:20.289Z,100458.75
2017-08-08T11:14:55.012Z,100455.98
2017-08-08T11:17:29.673Z,100451.87
2017-08-08T11:20:04.296Z,100447.32
2017-08-08T11:22:38.918Z,100444.48
2017-08-08T11:25:13.624Z,100450.94
2017-08-08T11:27:48.264Z,100458.00
2017-08-08T11:30:22.884Z,100451.32
2017-08-08T11:32:57.444Z,100460.37
2017-08-08T11:35:31.986Z,100454.11
2017-08-08T11:38:06.764Z,100455.38
2017-08-08T11:40:41.372Z,100456.67
2017-08-08T11:43:17.047Z,100446.10
2017-08-08T11:45:51.762Z,100446.13
2017-08-08T11:48:27.453Z,100439.34
2017-08-08T11:51:02.151Z,100430.59
2017-08-08T11:53:36.898Z,100425.91
2017-08-08T11:56:11.545Z,100419.99
2017-08-08T11:58:46.180Z,100415.54
2017-08-08T12:01:20.826Z,100409.49
2017-08-08T12:03:55.604Z,100410.88
2017-08-08T12:06:30.261Z,100406.85
2017-08-08T12:09:04.220Z,100401.03
2017-08-08T12:11:39.316Z,100401.25
2017-08-08T12:14:14.074Z,100399.77
2017-08-08T12:16:48.696Z,100400.39
2017-08-08T12:19:23.441Z,100402.92
2017-08-08T12:21:58.223Z,100395.42
2017-08-08T12:24:32.865Z,100402.60
2017-08-08T12:27:07.489Z,100400.80
2017-08-08T12:29:42.400Z,100400.71
2017-08-08T12:32:16.816Z,100397.67
2017-08-08T12:34:51.429Z,100409.49
2017-08-08T12:37:26.245Z,100430.13
2017-08-08T12:40:00.633Z,100420.60
2017-08-08T12:42:35.127Z,100417.02
2017-08-08T12:45:09.745Z,100414.78
2017-08-08T12:47:44.517Z,100413.73
2017-08-08T12:50:19.139Z,100415.72
2017-08-08T12:52:53.753Z,100414.66
2017-08-08T12:55:28.509Z,100417.52
2017-08-08T12:58:03.223Z,100415.89
2017-08-08T13:00:37.865Z,100422.52
2017-08-08T13:03:12.645Z,100418.25
2017-08-08T13:05:47.421Z,100420.23
2017-08-08T13:08:22.044Z,100411.56
2017-08-08T13:10:56.644Z,100412.00
2017-08-08T13:13:32.366Z,100405.63
2017-08-08T13:16:07.009Z,100401.91
2017-08-08T13:18:41.709Z,100404.55
2017-08-08T13:21:16.393Z,100407.30
2017-08-08T13:23:51.031Z,100409.39
2017-08-08T13:26:25.567Z,100395.36
2017-08-08T13:29:01.327Z,100385.75
2017-08-08T13:31:36.957Z,100392.30
2017-08-08T13:34:11.581Z,100377.19
2017-08-08T13:36:46.313Z,100370.45
2017-08-08T13:39:20.953Z,100372.05
2017-08-08T13:41:55.524Z,100373.82
2017-08-08T13:44:30.293Z,100369.23
2017-08-08T13:47:04.985Z,100361.13
2017-08-08T13:49:39.592Z,100365.07
2017-08-08T13:52:14.237Z,100365.91
2017-08-08T13:54:50.033Z,100373.70
2017-08-08T13:57:24.641Z,100366.80
2017-08-08T13:59:59.321Z,100368.72
2017-08-08T14:02:33.996Z,100366.58
2017-08-08T14:05:08.769Z,100363.94
2017-08-08T14:07:43.385Z,100354.77
2017-08-08T14:10:18.049Z,100340.64
2017-08-08T14:12:52.604Z,100333.55
2017-08-08T14:15:29.186Z,100343.41
2017-08-08T14:18:03.906Z,100342.24
2017-08-08T14:20:38.360Z,100325.99
2017-08-08T14:23:13.004Z,100331.59
2017-08-08T14:25:47.740Z,100344.72
2017-08-08T14:28:22.560Z,100342.78
2017-08-08T14:30:57.271Z,100354.60
2017-08-08T14:33:31.753Z,100352.72
2017-08-08T14:36:06.085Z,100333.14
2017-08-08T14:38:40.985Z,100328.68
2017-08-08T14:41:16.717Z,100345.41
2017-08-08T14:43:51.413Z,100339.92
2017-08-08T14:46:26.297Z,100342.77
2017-08-08T14:49:00.693Z,100348.27
2017-08-08T14:51:35.442Z,100349.02
2017-08-08T14:54:10.226Z,100345.39
2017-08-08T14:56:46.341Z,100343.22
2017-08-08T14:59:21.033Z,100343.98
2017-08-08T15:01:55.481Z,100351.73
2017-08-08T15:04:31.013Z,100353.28
2017-08-08T15:07:05.648Z,100361.29
2017-08-08T15:09:40.245Z,100371.91
2017-08-08T15:12:14.919Z,100373.06
2017-08-08T15:14:49.791Z,100369.31
2017-08-08T15:17:24.468Z,100383.80
2017-08-08T15:19:59.047Z,100387.27
2017-08-08T15:22:33.733Z,100387.05
2017-08-08T15:25:08.277Z,100375.05
2017-08-08T15:27:43.015Z,100379.84
2017-08-08T15:30:17.639Z,100377.86
2017-08-08T15:32:52.467Z,100381.38
2017-08-08T15:35:27.286Z,100383.33
2017-08-08T15:38:03.277Z,100379.91
2017-08-08T15:40:37.890Z,100381.77
2017-08-08T15:43:12.603Z,100392.15
2017-08-08T15:45:46.914Z,100384.23
2017-08-08T15:48:21.661Z,100387.27
2017-08-08T15:50:56.277Z,100393.50
2017-08-08T15:53:31.093Z,100390.83
2017-08-08T15:56:06.737Z,100398.39
2017-08-08T15:58:41.389Z,100397.30
2017-08-08T16:01:16.164Z,100391.48
2017-08-08T16:03:50.747Z,100402.38
2017-08-08T16:06:25.554Z,100401.53
2017-08-08T16:09:00.963Z,100402.75
2017-08-08T16:11:35.754Z,100411.12
2017-08-08T16:14:10.417Z,100405.81
2017-08-08T16:16:45.236Z,100405.27
2017-08-08T16:19:19.861Z,100399.76
2017-08-08T16:21:54.459Z,100397.17
2017-08-08T16:24:29.261Z,100393.03
2017-08-08T16:27:03.853Z,100388.08
2017-08-08T16:29:38.550Z,100391.02
2017-08-08T16:32:13.323Z,100395.34
2017-08-08T16:34:48.141Z,100396.44
2017-08-08T16:37:22.663Z,100396.89
2017-08-08T16:39:57.333Z,100394.20
2017-08-08T16:42:31.949Z,100393.37
2017-08-08T16:45:06.624Z,100389.30
2017-08-08T16:47:41.384Z,100375.75
2017-08-08T16:50:16.009Z,100382.36
2017-08-08T16:52:50.869Z,100376.30
2017-08-08T16:55:26.295Z,100379.48
2017-08-08T16:58:00.806Z,100380.02
2017-08-08T17:00:35.530Z,100379.71
2017-08-08T17:03:10.153Z,100378.52
2017-08-08T17:05:45.887Z,100381.66
2017-08-08T17:08:20.369Z,100380.16
2017-08-08T17:10:55.255Z,100380.56
2017-08-08T17:13:29.868Z,100389.10
2017-08-08T17:16:04.625Z,100383.61
2017-08-08T17:18:39.321Z,100384.88
2017-08-08T17:21:13.981Z,100385.44
2017-08-08T17:23:48.703Z,100392.75
2017-08-08T17:26:24.269Z,100384.34
2017-08-08T17:28:58.961Z,100393.63
2017-08-08T17:31:33.977Z,100386.44
2017-08-08T17:34:09.263Z,100386.45
2017-08-08T17:36:44.865Z,100388.83
2017-08-08T17:39:19.601Z,100389.96
2017-08-08T17:41:54.296Z,100393.57
2017-08-08T17:44:29.721Z,100385.91
2017-08-08T17:47:04.400Z,100385.90
2017-08-08T17:49:39.102Z,100372.67
2017-08-08T17:52:14.723Z,100368.80
2017-08-08T17:54:49.407Z,100364.99
2017-08-08T17:57:24.989Z,100361.27
2017-08-08T17:59:59.700Z,100354.38
2017-08-08T18:02:34.427Z,100357.55
2017-08-08T18:05:09.165Z,100346.66
2017-08-08T18:07:44.809Z,100354.50
2017-08-08T18:10:19.517Z,100356.16
2017-08-08T18:12:54.166Z,100362.91
2017-08-08T18:15:28.802Z,100366.80
2017-08-08T18:18:04.176Z,100373.08
2017-08-08T18:20:38.986Z,100382.33
2017-08-08T18:23:14.348Z,100379.45
2017-08-08T18:25:49.408Z,100381.14
2017-08-08T18:28:25.103Z,100380.22
2017-08-08T18:30:59.721Z,100380.45
2017-08-08T18:33:35.588Z,100366.52
2017-08-08T18:36:10.215Z,100364.72
2017-08-08T18:38:44.993Z,100363.16
2017-08-08T18:41:19.657Z,100361.80
2017-08-08T18:43:55.202Z,100370.86
2017-08-08T18:46:29.924Z,100361.88
2017-08-08T18:49:04.664Z,100360.22
2017-08-08T18:51:39.321Z,100354.97
2017-08-08T18:54:14.044Z,100352.08
2017-08-08T18:56:48.737Z,100346.86
2017-08-08T18:59:24.521Z,100350.95
2017-08-08T19:01:59.040Z,100353.11
2017-08-08T19:04:33.740Z,100339.33
2017-08-08T19:07:08.369Z,100339.16
2017-08-08T19:09:43.069Z,100339.91
2017-08-08T19:12:19.284Z,100343.36
2017-08-08T19:14:54.835Z,100344.25
2017-08-08T19:17:29.247Z,100350.92
2017-08-08T19:20:04.248Z,100353.67
2017-08-08T19:22:39.521Z,100366.70
2017-08-08T19:25:14.231Z,100365.34
2017-08-08T19:27:48.963Z,100364.05
2017-08-08T19:30:23.653Z,100376.37
2017-08-08T19:32:58.328Z,100385.62
2017-08-08T19:35:33.004Z,100388.89
2017-08-08T19:38:07.688Z,100396.00
2017-08-08T19:40:42.312Z,100416.49
2017-08-08T19:43:16.893Z,100418.95
2017-08-08T19:45:51.568Z,100429.66
2017-08-08T19:48:26.329Z,100432.44
2017-08-08T19:51:00.991Z,100438.52
2017-08-08T19:53:35.899Z,100434.75
2017-08-08T19:56:11.348Z,100429.38
2017-08-08T19:58:46.012Z,100436.44
2017-08-08T20:01:21.547Z,100435.08
2017-08-08T20:03:56.188Z,100441.20
2017-08-08T20:06:30.944Z,100454.92
2017-08-08T20:09:05.405Z,100453.51
2017-08-08T20:11:40.301Z,100454.91
2017-08-08T20:14:15.264Z,100468.94
2017-08-08T20:16:50.229Z,100459.67
2017-08-08T20:19:25.269Z,100461.59
2017-08-08T20:22:00.004Z,100471.76
2017-08-08T20:24:34.525Z,100470.97
2017-08-08T20:27:09.305Z,100479.92
2017-08-08T20:29:43.934Z,100477.17
2017-08-08T20:32:19.683Z,100475.41
2017-08-08T20:34:54.179Z,100472.03
2017-08-08T20:37:28.840Z,100490.02
2017-08-08T20:40:03.595Z,100485.28
2017-08-08T20:42:38.297Z,100479.20
2017-08-08T20:45:13.070Z,100493.23
2017-08-08T20:47:47.725Z,100470.82
2017-08-08T20:50:22.459Z,100476.33
2017-08-08T20:52:57.283Z,100486.12
2017-08-08T20:55:32.105Z,100490.12
2017-08-08T20:58:07.245Z,100484.67
2017-08-08T21:00:41.618Z,100491.02
2017-08-08T21:03:16.352Z,100492.67
2017-08-08T21:05:50.989Z,100500.41
2017-08-08T21:08:25.869Z,100515.47
2017-08-08T21:11:00.392Z,100496.98
2017-08-08T21:13:34.943Z,100499.16
2017-08-08T21:16:09.798Z,100489.85
2017-08-08T21:18:46.485Z,100499.78
2017-08-08T21:21:21.233Z,100500.15
2017-08-08T21:23:55.938Z,100506.83
2017-08-08T21:26:30.689Z,100512.37
2017-08-08T21:29:06.455Z,100509.84
2017-08-08T21:31:41.164Z,100506.38
2017-08-08T21:34:16.539Z,100504.51
2017-08-08T21:36:51.743Z,100523.83
2017-08-08T21:39:34.038Z,100524.02
2017-08-08T21:42:09.299Z,100524.36
2017-08-08T21:44:44.052Z,100539.03
2017-08-08T21:47:18.783Z,100534.16
2017-08-08T21:49:53.482Z,100523.17
2017-08-08T21:52:28.477Z,100525.71
2017-08-08T21:55:02.927Z,100526.23
2017-08-08T21:57:37.653Z,100530.58
2017-08-08T22:00:12.423Z,100534.16
2017-08-08T22:02:46.971Z,100546.09
2017-08-08T22:05:22.818Z,100538.94
2017-08-08T22:07:57.507Z,100544.80
2017-08-08T22:10:32.045Z,100543.92
2017-08-08T22:13:06.767Z,100541.70
2017-08-08T22:15:42.609Z,100542.44
2017-08-08T22:18:17.312Z,100556.66
2017-08-08T22:20:52.071Z,100553.23
2017-08-08T22:23:26.716Z,100559.36
2017-08-08T22:26:01.456Z,100560.13
2017-08-08T22:28:36.244Z,100560.87
2017-08-08T22:31:10.884Z,100555.08
2017-08-08T22:33:45.188Z,100559.33
2017-08-08T22:36:20.267Z,100565.48
2017-08-08T22:38:55.075Z,100576.09
2017-08-08T22:41:29.700Z,100577.80
2017-08-08T22:44:05.555Z,100582.69
2017-08-08T22:46:40.239Z,100587.44
2017-08-08T22:49:14.905Z,100594.97
2017-08-08T22:51:49.548Z,100598.30
2017-08-08T22:54:24.256Z,100601.46
2017-08-08T22:56:59.005Z,100596.07
2017-08-08T22:59:33.757Z,100602.97
2017-08-08T23:02:08.485Z,100611.13
2017-08-08T23:04:43.245Z,100606.73
2017-08-08T23:07:18.007Z,100617.47
2017-08-08T23:09:52.777Z,100619.77
2017-08-08T23:12:27.516Z,100625.53
2017-08-08T23:15:02.314Z,100624.40
2017-08-08T23:17:37.061Z,100630.95
2017-08-08T23:20:11.845Z,100635.83
2017-08-08T23:22:46.489Z,100638.81
2017-08-08T23:25:21.135Z,100661.04
2017-08-08T23:27:56.070Z,100672.00
2017-08-08T23:30:30.905Z,100666.95
2017-08-08T23:33:05.833Z,100680.70
2017-08-08T23:35:40.536Z,100680.39
2017-08-08T23:38:15.449Z,100683.45
2017-08-08T23:40:50.145Z,100677.48
2017-08-08T23:43:24.851Z,100676.20
2017-08-08T23:45:59.700Z,100668.26
2017-08-08T23:48:34.587Z,100671.98
2017-08-08T23:51:09.519Z,100685.38
2017-08-08T23:53:44.405Z,100683.05
2017-08-08T23:56:19.212Z,100688.66
2017-08-08T23:58:53.957Z,100695.05
